sensor_id;sensor_type;location;lat;lon;timestamp;temperature;humidity
29431;DHT22;16404;49.902;10.074;2022-11-20T00:02:42;6.00;65.80
29431;DHT22;16404;49.902;10.074;2022-11-20T00:05:26;6.00;65.90
29431;DHT22;16404;49.902;10.074;2022-11-20T00:08:11;6.00;65.80
29431;DHT22;16404;49.902;10.074;2022-11-20T00:10:56;6.00;65.80
29431;DHT22;16404;49.902;10.074;2022-11-20T00:13:40;6.10;65.90
29431;DHT22;16404;49.902;10.074;2022-11-20T00:16:26;6.10;65.90
29431;DHT22;16404;49.902;10.074;2022-11-20T00:19:11;6.10;66.00
29431;DHT22;16404;49.902;10.074;2022-11-20T00:21:55;6.10;66.00
29431;DHT22;16404;49.902;10.074;2022-11-20T00:24:40;6.10;66.00
29431;DHT22;16404;49.902;10.074;2022-11-20T00:27:24;6.10;65.80
29431;DHT22;16404;49.902;10.074;2022-11-20T00:30:09;6.10;65.70
29431;DHT22;16404;49.902;10.074;2022-11-20T00:32:56;6.10;65.60
29431;DHT22;16404;49.902;10.074;2022-11-20T00:35:41;6.10;65.40
29431;DHT22;16404;49.902;10.074;2022-11-20T00:38:25;6.10;65.50
29431;DHT22;16404;49.902;10.074;2022-11-20T00:41:12;6.10;65.50
29431;DHT22;16404;49.902;10.074;2022-11-20T00:43:57;6.10;65.70
29431;DHT22;16404;49.902;10.074;2022-11-20T00:46:41;6.10;65.70
29431;DHT22;16404;49.902;10.074;2022-11-20T00:49:26;6.10;65.70
29431;DHT22;16404;49.902;10.074;2022-11-20T00:52:10;6.10;65.80
29431;DHT22;16404;49.902;10.074;2022-11-20T00:54:55;6.10;65.80
29431;DHT22;16404;49.902;10.074;2022-11-20T00:57:40;6.10;65.80
29431;DHT22;16404;49.902;10.074;2022-11-20T01:00:24;6.10;65.90
29431;DHT22;16404;49.902;10.074;2022-11-20T01:03:09;6.00;65.90
29431;DHT22;16404;49.902;10.074;2022-11-20T01:05:54;6.10;66.10
29431;DHT22;16404;49.902;10.074;2022-11-20T01:08:38;6.10;66.20
29431;DHT22;16404;49.902;10.074;2022-11-20T01:11:26;6.00;66.00
29431;DHT22;16404;49.902;10.074;2022-11-20T01:14:13;6.00;65.90
29431;DHT22;16404;49.902;10.074;2022-11-20T01:16:57;6.00;65.90
29431;DHT22;16404;49.902;10.074;2022-11-20T01:19:42;6.00;65.90
29431;DHT22;16404;49.902;10.074;2022-11-20T01:22:27;6.00;66.00
29431;DHT22;16404;49.902;10.074;2022-11-20T01:25:11;6.00;66.20
29431;DHT22;16404;49.902;10.074;2022-11-20T01:27:56;6.00;66.10
29431;DHT22;16404;49.902;10.074;2022-11-20T01:30:41;6.00;66.10
29431;DHT22;16404;49.902;10.074;2022-11-20T01:33:26;6.00;66.10
29431;DHT22;16404;49.902;10.074;2022-11-20T01:36:12;6.00;65.90
29431;DHT22;16404;49.902;10.074;2022-11-20T01:39:03;6.00;65.90
29431;DHT22;16404;49.902;10.074;2022-11-20T01:41:48;6.00;66.00
29431;DHT22;16404;49.902;10.074;2022-11-20T01:44:58;5.90;66.00
29431;DHT22;16404;49.902;10.074;2022-11-20T01:47:45;5.90;66.10
29431;DHT22;16404;49.902;10.074;2022-11-20T01:50:30;5.90;66.20
29431;DHT22;16404;49.902;10.074;2022-11-20T01:53:16;5.90;66.30
29431;DHT22;16404;49.902;10.074;2022-11-20T01:56:06;5.90;66.50
29431;DHT22;16404;49.902;10.074;2022-11-20T01:58:55;5.90;66.50
29431;DHT22;16404;49.902;10.074;2022-11-20T02:01:41;5.90;66.20
29431;DHT22;16404;49.902;10.074;2022-11-20T02:04:25;6.00;66.20
29431;DHT22;16404;49.902;10.074;2022-11-20T02:07:10;6.00;66.20
29431;DHT22;16404;49.902;10.074;2022-11-20T02:09:55;6.00;66.20
29431;DHT22;16404;49.902;10.074;2022-11-20T02:12:40;6.00;66.10
29431;DHT22;16404;49.902;10.074;2022-11-20T02:15:44;6.00;66.10
29431;DHT22;16404;49.902;10.074;2022-11-20T02:18:28;5.90;66.10
29431;DHT22;16404;49.902;10.074;2022-11-20T02:24:20;5.90;66.10
29431;DHT22;16404;49.902;10.074;2022-11-20T02:27:23;5.90;66.20
29431;DHT22;16404;49.902;10.074;2022-11-20T02:30:08;5.80;66.30
29431;DHT22;16404;49.902;10.074;2022-11-20T02:32:54;5.80;66.30
29431;DHT22;16404;49.902;10.074;2022-11-20T02:35:41;5.80;66.40
29431;DHT22;16404;49.902;10.074;2022-11-20T02:38:26;5.80;66.60
29431;DHT22;16404;49.902;10.074;2022-11-20T02:41:11;5.80;66.30
29431;DHT22;16404;49.902;10.074;2022-11-20T02:43:55;5.80;66.30
29431;DHT22;16404;49.902;10.074;2022-11-20T02:46:40;5.80;66.50
29431;DHT22;16404;49.902;10.074;2022-11-20T02:49:25;5.80;66.60
29431;DHT22;16404;49.902;10.074;2022-11-20T02:52:09;5.90;66.60
29431;DHT22;16404;49.902;10.074;2022-11-20T02:54:54;5.90;66.30
29431;DHT22;16404;49.902;10.074;2022-11-20T02:57:39;5.90;66.40
29431;DHT22;16404;49.902;10.074;2022-11-20T03:00:23;5.90;66.20
29431;DHT22;16404;49.902;10.074;2022-11-20T03:03:08;5.90;66.10
29431;DHT22;16404;49.902;10.074;2022-11-20T03:05:53;5.90;66.10
29431;DHT22;16404;49.902;10.074;2022-11-20T03:08:38;5.80;66.10
29431;DHT22;16404;49.902;10.074;2022-11-20T03:11:22;5.80;66.10
29431;DHT22;16404;49.902;10.074;2022-11-20T03:14:07;5.90;66.00
29431;DHT22;16404;49.902;10.074;2022-11-20T03:16:52;5.90;66.00
29431;DHT22;16404;49.902;10.074;2022-11-20T03:19:36;5.90;65.90
29431;DHT22;16404;49.902;10.074;2022-11-20T03:22:21;5.90;66.00
29431;DHT22;16404;49.902;10.074;2022-11-20T03:25:06;5.90;66.10
29431;DHT22;16404;49.902;10.074;2022-11-20T03:27:50;5.80;66.40
29431;DHT22;16404;49.902;10.074;2022-11-20T03:30:35;5.80;66.60
29431;DHT22;16404;49.902;10.074;2022-11-20T03:33:19;5.90;66.60
29431;DHT22;16404;49.902;10.074;2022-11-20T03:36:06;5.90;66.50
29431;DHT22;16404;49.902;10.074;2022-11-20T03:38:52;6.00;66.30
29431;DHT22;16404;49.902;10.074;2022-11-20T03:41:39;6.00;65.90
29431;DHT22;16404;49.902;10.074;2022-11-20T03:44:24;6.00;66.00
29431;DHT22;16404;49.902;10.074;2022-11-20T03:47:09;6.00;66.10
29431;DHT22;16404;49.902;10.074;2022-11-20T03:49:53;6.00;65.90
29431;DHT22;16404;49.902;10.074;2022-11-20T03:52:38;6.00;66.00
29431;DHT22;16404;49.902;10.074;2022-11-20T03:55:23;6.00;66.00
29431;DHT22;16404;49.902;10.074;2022-11-20T03:58:08;6.00;65.80
29431;DHT22;16404;49.902;10.074;2022-11-20T04:00:53;6.00;65.60
29431;DHT22;16404;49.902;10.074;2022-11-20T04:03:39;6.00;65.70
29431;DHT22;16404;49.902;10.074;2022-11-20T04:06:26;6.00;65.70
29431;DHT22;16404;49.902;10.074;2022-11-20T04:09:11;6.00;65.90
29431;DHT22;16404;49.902;10.074;2022-11-20T04:11:55;6.00;65.80
29431;DHT22;16404;49.902;10.074;2022-11-20T04:14:40;6.00;65.70
29431;DHT22;16404;49.902;10.074;2022-11-20T04:17:24;6.00;65.50
29431;DHT22;16404;49.902;10.074;2022-11-20T04:20:09;6.00;65.50
29431;DHT22;16404;49.902;10.074;2022-11-20T04:22:53;6.00;65.70
29431;DHT22;16404;49.902;10.074;2022-11-20T04:25:39;5.90;65.80
29431;DHT22;16404;49.902;10.074;2022-11-20T04:28:23;5.90;65.80
29431;DHT22;16404;49.902;10.074;2022-11-20T04:31:10;5.90;65.90
29431;DHT22;16404;49.902;10.074;2022-11-20T04:33:58;5.90;65.90
29431;DHT22;16404;49.902;10.074;2022-11-20T04:36:42;5.90;65.90
29431;DHT22;16404;49.902;10.074;2022-11-20T04:39:27;5.90;66.00
29431;DHT22;16404;49.902;10.074;2022-11-20T04:42:12;5.90;66.20
29431;DHT22;16404;49.902;10.074;2022-11-20T04:45:14;5.90;66.30
29431;DHT22;16404;49.902;10.074;2022-11-20T04:47:59;6.00;66.20
29431;DHT22;16404;49.902;10.074;2022-11-20T04:50:44;6.00;66.10
29431;DHT22;16404;49.902;10.074;2022-11-20T04:53:28;6.00;66.20
29431;DHT22;16404;49.902;10.074;2022-11-20T04:56:13;6.00;66.30
29431;DHT22;16404;49.902;10.074;2022-11-20T04:59:02;5.90;66.40
29431;DHT22;16404;49.902;10.074;2022-11-20T05:01:46;5.90;66.60
29431;DHT22;16404;49.902;10.074;2022-11-20T05:04:31;5.90;66.50
29431;DHT22;16404;49.902;10.074;2022-11-20T05:07:16;6.00;66.40
29431;DHT22;16404;49.902;10.074;2022-11-20T05:10:00;6.10;67.10
29431;DHT22;16404;49.902;10.074;2022-11-20T05:12:45;6.00;66.20
29431;DHT22;16404;49.902;10.074;2022-11-20T05:15:29;6.10;66.10
29431;DHT22;16404;49.902;10.074;2022-11-20T05:18:14;6.10;66.10
29431;DHT22;16404;49.902;10.074;2022-11-20T05:20:58;6.10;66.20
29431;DHT22;16404;49.902;10.074;2022-11-20T05:23:44;6.10;66.20
29431;DHT22;16404;49.902;10.074;2022-11-20T05:26:29;6.10;66.20
29431;DHT22;16404;49.902;10.074;2022-11-20T05:29:13;6.10;66.30
29431;DHT22;16404;49.902;10.074;2022-11-20T05:31:58;6.10;66.20
29431;DHT22;16404;49.902;10.074;2022-11-20T05:34:43;6.10;66.20
29431;DHT22;16404;49.902;10.074;2022-11-20T05:37:27;6.10;66.20
29431;DHT22;16404;49.902;10.074;2022-11-20T05:40:12;6.00;66.30
29431;DHT22;16404;49.902;10.074;2022-11-20T05:42:57;6.00;66.40
29431;DHT22;16404;49.902;10.074;2022-11-20T05:45:42;6.00;66.50
29431;DHT22;16404;49.902;10.074;2022-11-20T05:48:26;6.00;66.60
29431;DHT22;16404;49.902;10.074;2022-11-20T05:51:14;6.00;66.40
29431;DHT22;16404;49.902;10.074;2022-11-20T05:53:58;6.00;66.50
29431;DHT22;16404;49.902;10.074;2022-11-20T05:56:43;6.00;66.80
29431;DHT22;16404;49.902;10.074;2022-11-20T05:59:28;6.00;66.40
29431;DHT22;16404;49.902;10.074;2022-11-20T06:02:12;6.00;66.30
29431;DHT22;16404;49.902;10.074;2022-11-20T06:04:57;6.00;66.20
29431;DHT22;16404;49.902;10.074;2022-11-20T06:07:42;6.10;66.00
29431;DHT22;16404;49.902;10.074;2022-11-20T06:10:26;6.10;65.90
29431;DHT22;16404;49.902;10.074;2022-11-20T06:13:11;6.10;65.70
29431;DHT22;16404;49.902;10.074;2022-11-20T06:15:55;6.00;65.70
29431;DHT22;16404;49.902;10.074;2022-11-20T06:18:40;6.00;65.70
29431;DHT22;16404;49.902;10.074;2022-11-20T06:21:24;6.00;66.00
29431;DHT22;16404;49.902;10.074;2022-11-20T06:24:10;6.00;66.00
29431;DHT22;16404;49.902;10.074;2022-11-20T06:26:54;6.00;65.80
29431;DHT22;16404;49.902;10.074;2022-11-20T06:29:39;6.00;65.70
29431;DHT22;16404;49.902;10.074;2022-11-20T06:32:23;6.00;65.70
29431;DHT22;16404;49.902;10.074;2022-11-20T06:35:08;6.00;65.90
29431;DHT22;16404;49.902;10.074;2022-11-20T06:37:53;6.00;66.10
29431;DHT22;16404;49.902;10.074;2022-11-20T06:40:40;6.00;66.00
29431;DHT22;16404;49.902;10.074;2022-11-20T06:43:24;6.10;66.00
29431;DHT22;16404;49.902;10.074;2022-11-20T06:46:11;6.00;66.00
29431;DHT22;16404;49.902;10.074;2022-11-20T06:48:56;6.00;66.10
29431;DHT22;16404;49.902;10.074;2022-11-20T06:51:40;6.00;66.20
29431;DHT22;16404;49.902;10.074;2022-11-20T06:54:25;6.10;66.40
29431;DHT22;16404;49.902;10.074;2022-11-20T06:57:10;6.10;66.40
29431;DHT22;16404;49.902;10.074;2022-11-20T06:59:54;6.10;66.30
29431;DHT22;16404;49.902;10.074;2022-11-20T07:02:39;6.10;66.20
29431;DHT22;16404;49.902;10.074;2022-11-20T07:05:23;6.10;66.30
29431;DHT22;16404;49.902;10.074;2022-11-20T07:08:08;6.10;66.30
29431;DHT22;16404;49.902;10.074;2022-11-20T07:10:56;6.10;66.30
29431;DHT22;16404;49.902;10.074;2022-11-20T07:13:41;6.10;66.40
29431;DHT22;16404;49.902;10.074;2022-11-20T07:16:26;6.10;66.50
29431;DHT22;16404;49.902;10.074;2022-11-20T07:19:11;6.10;66.40
29431;DHT22;16404;49.902;10.074;2022-11-20T07:21:56;6.20;66.40
29431;DHT22;16404;49.902;10.074;2022-11-20T07:24:40;6.10;66.40
29431;DHT22;16404;49.902;10.074;2022-11-20T07:27:25;6.10;66.60
29431;DHT22;16404;49.902;10.074;2022-11-20T07:30:10;6.10;66.60
29431;DHT22;16404;49.902;10.074;2022-11-20T07:32:56;6.10;66.70
29431;DHT22;16404;49.902;10.074;2022-11-20T07:35:40;6.20;66.60
29431;DHT22;16404;49.902;10.074;2022-11-20T07:38:25;6.20;66.60
29431;DHT22;16404;49.902;10.074;2022-11-20T07:41:09;6.20;66.60
29431;DHT22;16404;49.902;10.074;2022-11-20T07:43:54;6.10;66.70
29431;DHT22;16404;49.902;10.074;2022-11-20T07:46:38;6.10;66.80
29431;DHT22;16404;49.902;10.074;2022-11-20T07:49:23;6.20;66.80
29431;DHT22;16404;49.902;10.074;2022-11-20T07:52:08;6.20;66.60
29431;DHT22;16404;49.902;10.074;2022-11-20T07:54:52;6.30;66.50
29431;DHT22;16404;49.902;10.074;2022-11-20T07:57:37;6.30;66.50
29431;DHT22;16404;49.902;10.074;2022-11-20T08:00:22;6.30;66.50
29431;DHT22;16404;49.902;10.074;2022-11-20T08:03:07;6.30;66.40
29431;DHT22;16404;49.902;10.074;2022-11-20T08:05:51;6.30;66.30
29431;DHT22;16404;49.902;10.074;2022-11-20T08:08:36;6.30;66.40
29431;DHT22;16404;49.902;10.074;2022-11-20T08:11:20;6.30;66.40
29431;DHT22;16404;49.902;10.074;2022-11-20T08:14:23;6.30;66.40
29431;DHT22;16404;49.902;10.074;2022-11-20T08:17:08;6.20;66.50
29431;DHT22;16404;49.902;10.074;2022-11-20T08:19:52;6.20;66.80
29431;DHT22;16404;49.902;10.074;2022-11-20T08:22:37;6.20;66.80
29431;DHT22;16404;49.902;10.074;2022-11-20T08:25:21;6.20;66.80
29431;DHT22;16404;49.902;10.074;2022-11-20T08:28:08;6.20;66.90
29431;DHT22;16404;49.902;10.074;2022-11-20T08:31:00;6.20;67.00
29431;DHT22;16404;49.902;10.074;2022-11-20T08:33:45;6.20;67.10
29431;DHT22;16404;49.902;10.074;2022-11-20T08:36:33;6.30;67.00
29431;DHT22;16404;49.902;10.074;2022-11-20T08:39:18;6.40;66.80
29431;DHT22;16404;49.902;10.074;2022-11-20T08:42:07;6.40;66.50
29431;DHT22;16404;49.902;10.074;2022-11-20T08:44:52;6.40;66.40
29431;DHT22;16404;49.902;10.074;2022-11-20T08:47:36;6.40;66.60
29431;DHT22;16404;49.902;10.074;2022-11-20T08:50:24;6.30;67.10
29431;DHT22;16404;49.902;10.074;2022-11-20T08:53:08;6.30;67.40
29431;DHT22;16404;49.902;10.074;2022-11-20T08:55:53;6.30;67.50
29431;DHT22;16404;49.902;10.074;2022-11-20T08:58:38;6.30;67.70
29431;DHT22;16404;49.902;10.074;2022-11-20T09:01:23;6.40;67.60
29431;DHT22;16404;49.902;10.074;2022-11-20T09:04:07;6.40;67.40
29431;DHT22;16404;49.902;10.074;2022-11-20T09:06:52;6.50;67.30
29431;DHT22;16404;49.902;10.074;2022-11-20T09:09:37;6.60;67.30
29431;DHT22;16404;49.902;10.074;2022-11-20T09:12:21;6.50;67.30
29431;DHT22;16404;49.902;10.074;2022-11-20T09:15:06;6.50;67.40
29431;DHT22;16404;49.902;10.074;2022-11-20T09:17:56;6.60;67.50
29431;DHT22;16404;49.902;10.074;2022-11-20T09:20:40;6.50;67.40
29431;DHT22;16404;49.902;10.074;2022-11-20T09:23:25;6.60;67.60
29431;DHT22;16404;49.902;10.074;2022-11-20T09:26:13;6.60;67.60
29431;DHT22;16404;49.902;10.074;2022-11-20T09:28:57;6.60;67.50
29431;DHT22;16404;49.902;10.074;2022-11-20T09:31:42;6.70;67.10
29431;DHT22;16404;49.902;10.074;2022-11-20T09:34:27;6.70;67.30
29431;DHT22;16404;49.902;10.074;2022-11-20T09:37:11;6.70;67.40
29431;DHT22;16404;49.902;10.074;2022-11-20T09:39:56;6.70;67.30
29431;DHT22;16404;49.902;10.074;2022-11-20T09:43:16;6.80;67.20
29431;DHT22;16404;49.902;10.074;2022-11-20T09:46:39;6.70;67.30
29431;DHT22;16404;49.902;10.074;2022-11-20T09:49:58;6.60;67.50
29431;DHT22;16404;49.902;10.074;2022-11-20T09:53:28;6.60;67.50
29431;DHT22;16404;49.902;10.074;2022-11-20T09:55:54;6.70;67.40
29431;DHT22;16404;49.902;10.074;2022-11-20T09:58:49;6.60;67.40
29431;DHT22;16404;49.902;10.074;2022-11-20T10:01:51;6.60;67.70
29431;DHT22;16404;49.902;10.074;2022-11-20T10:04:37;6.60;68.00
29431;DHT22;16404;49.902;10.074;2022-11-20T10:10:40;6.50;68.30
29431;DHT22;16404;49.902;10.074;2022-11-20T10:25:00;6.70;68.40
29431;DHT22;16404;49.902;10.074;2022-11-20T10:30:41;6.80;68.60
29431;DHT22;16404;49.902;10.074;2022-11-20T10:33:31;6.90;68.50
29431;DHT22;16404;49.902;10.074;2022-11-20T10:41:52;6.80;68.90
29431;DHT22;16404;49.902;10.074;2022-11-20T10:44:39;6.90;69.10
29431;DHT22;16404;49.902;10.074;2022-11-20T10:47:45;6.90;69.10
29431;DHT22;16404;49.902;10.074;2022-11-20T10:50:30;7.00;69.00
29431;DHT22;16404;49.902;10.074;2022-11-20T10:53:42;7.10;69.20
29431;DHT22;16404;49.902;10.074;2022-11-20T11:02:46;7.00;69.80
29431;DHT22;16404;49.902;10.074;2022-11-20T11:05:48;7.10;69.30
29431;DHT22;16404;49.902;10.074;2022-11-20T11:08:39;7.20;69.10
29431;DHT22;16404;49.902;10.074;2022-11-20T11:11:28;7.20;68.90
29431;DHT22;16404;49.902;10.074;2022-11-20T11:14:15;7.20;69.00
29431;DHT22;16404;49.902;10.074;2022-11-20T11:17:01;7.20;69.10
29431;DHT22;16404;49.902;10.074;2022-11-20T11:19:45;7.30;69.10
29431;DHT22;16404;49.902;10.074;2022-11-20T11:22:49;7.30;69.20
29431;DHT22;16404;49.902;10.074;2022-11-20T11:25:36;7.30;69.30
29431;DHT22;16404;49.902;10.074;2022-11-20T11:28:22;7.30;69.20
29431;DHT22;16404;49.902;10.074;2022-11-20T11:31:08;7.40;69.20
29431;DHT22;16404;49.902;10.074;2022-11-20T11:34:21;7.40;69.10
29431;DHT22;16404;49.902;10.074;2022-11-20T11:37:14;7.40;69.00
29431;DHT22;16404;49.902;10.074;2022-11-20T11:40:01;7.30;68.80
29431;DHT22;16404;49.902;10.074;2022-11-20T11:43:07;7.40;68.80
29431;DHT22;16404;49.902;10.074;2022-11-20T11:55:04;7.20;68.50
29431;DHT22;16404;49.902;10.074;2022-11-20T11:58:11;7.20;68.60
29431;DHT22;16404;49.902;10.074;2022-11-20T12:01:38;7.20;68.50
29431;DHT22;16404;49.902;10.074;2022-11-20T12:10:48;7.30;68.00
29431;DHT22;16404;49.902;10.074;2022-11-20T12:16:20;7.20;68.00
29431;DHT22;16404;49.902;10.074;2022-11-20T12:19:13;7.10;68.20
29431;DHT22;16404;49.902;10.074;2022-11-20T12:22:13;7.10;68.60
29431;DHT22;16404;49.902;10.074;2022-11-20T12:31:22;7.10;69.00
29431;DHT22;16404;49.902;10.074;2022-11-20T12:43:22;7.10;69.20
29431;DHT22;16404;49.902;10.074;2022-11-20T13:00:22;7.20;69.60
29431;DHT22;16404;49.902;10.074;2022-11-20T13:06:35;7.20;69.70
29431;DHT22;16404;49.902;10.074;2022-11-20T13:09:20;7.30;69.70
29431;DHT22;16404;49.902;10.074;2022-11-20T13:12:13;7.20;69.90
29431;DHT22;16404;49.902;10.074;2022-11-20T13:18:01;7.20;70.00
29431;DHT22;16404;49.902;10.074;2022-11-20T13:20:47;7.20;69.90
29431;DHT22;16404;49.902;10.074;2022-11-20T13:23:32;7.20;70.00
29431;DHT22;16404;49.902;10.074;2022-11-20T13:26:22;7.20;70.00
29431;DHT22;16404;49.902;10.074;2022-11-20T13:29:18;7.20;69.80
29431;DHT22;16404;49.902;10.074;2022-11-20T13:32:14;7.20;69.60
29431;DHT22;16404;49.902;10.074;2022-11-20T13:35:02;7.20;69.50
29431;DHT22;16404;49.902;10.074;2022-11-20T13:37:47;7.20;69.50
29431;DHT22;16404;49.902;10.074;2022-11-20T13:40:32;7.20;69.60
29431;DHT22;16404;49.902;10.074;2022-11-20T13:46:06;7.20;69.80
29431;DHT22;16404;49.902;10.074;2022-11-20T13:48:51;7.30;69.90
29431;DHT22;16404;49.902;10.074;2022-11-20T13:51:48;7.30;69.90
29431;DHT22;16404;49.902;10.074;2022-11-20T13:54:45;7.40;70.10
29431;DHT22;16404;49.902;10.074;2022-11-20T13:57:57;7.40;69.80
29431;DHT22;16404;49.902;10.074;2022-11-20T14:01:00;7.40;69.60
29431;DHT22;16404;49.902;10.074;2022-11-20T14:03:47;7.40;69.60
29431;DHT22;16404;49.902;10.074;2022-11-20T14:06:34;7.40;69.50
29431;DHT22;16404;49.902;10.074;2022-11-20T14:09:31;7.40;69.60
29431;DHT22;16404;49.902;10.074;2022-11-20T14:12:19;7.40;69.60
29431;DHT22;16404;49.902;10.074;2022-11-20T14:15:04;7.40;69.70
29431;DHT22;16404;49.902;10.074;2022-11-20T14:17:48;7.40;69.90
29431;DHT22;16404;49.902;10.074;2022-11-20T14:20:32;7.40;70.00
29431;DHT22;16404;49.902;10.074;2022-11-20T14:23:28;7.50;69.70
29431;DHT22;16404;49.902;10.074;2022-11-20T14:26:15;7.40;69.50
29431;DHT22;16404;49.902;10.074;2022-11-20T14:29:02;7.40;69.60
29431;DHT22;16404;49.902;10.074;2022-11-20T14:31:50;7.40;69.40
29431;DHT22;16404;49.902;10.074;2022-11-20T14:34:39;7.40;69.40
29431;DHT22;16404;49.902;10.074;2022-11-20T14:37:29;7.40;69.40
29431;DHT22;16404;49.902;10.074;2022-11-20T14:40:35;7.40;69.30
29431;DHT22;16404;49.902;10.074;2022-11-20T14:43:24;7.40;69.30
29431;DHT22;16404;49.902;10.074;2022-11-20T14:46:10;7.40;69.20
29431;DHT22;16404;49.902;10.074;2022-11-20T14:49:01;7.30;69.10
29431;DHT22;16404;49.902;10.074;2022-11-20T14:51:58;7.30;69.30
29431;DHT22;16404;49.902;10.074;2022-11-20T14:54:51;7.30;69.50
29431;DHT22;16404;49.902;10.074;2022-11-20T14:57:36;7.30;69.50
29431;DHT22;16404;49.902;10.074;2022-11-20T15:00:21;7.30;69.20
29431;DHT22;16404;49.902;10.074;2022-11-20T15:03:15;7.30;69.20
29431;DHT22;16404;49.902;10.074;2022-11-20T15:06:01;7.30;69.50
29431;DHT22;16404;49.902;10.074;2022-11-20T15:08:57;7.30;69.50
29431;DHT22;16404;49.902;10.074;2022-11-20T15:11:55;7.30;69.70
29431;DHT22;16404;49.902;10.074;2022-11-20T15:14:41;7.30;69.60
29431;DHT22;16404;49.902;10.074;2022-11-20T15:17:28;7.30;69.50
29431;DHT22;16404;49.902;10.074;2022-11-20T15:20:15;7.30;69.60
29431;DHT22;16404;49.902;10.074;2022-11-20T15:23:00;7.40;69.70
29431;DHT22;16404;49.902;10.074;2022-11-20T15:25:46;7.40;69.60
29431;DHT22;16404;49.902;10.074;2022-11-20T15:28:40;7.30;69.50
29431;DHT22;16404;49.902;10.074;2022-11-20T15:31:27;7.30;69.70
29431;DHT22;16404;49.902;10.074;2022-11-20T15:34:15;7.30;69.60
29431;DHT22;16404;49.902;10.074;2022-11-20T15:37:00;7.30;69.60
29431;DHT22;16404;49.902;10.074;2022-11-20T15:39:44;7.30;69.50
29431;DHT22;16404;49.902;10.074;2022-11-20T15:42:29;7.30;69.70
29431;DHT22;16404;49.902;10.074;2022-11-20T15:45:13;7.30;69.80
29431;DHT22;16404;49.902;10.074;2022-11-20T15:47:59;7.30;69.80
29431;DHT22;16404;49.902;10.074;2022-11-20T15:50:47;7.30;69.80
29431;DHT22;16404;49.902;10.074;2022-11-20T15:53:33;7.40;69.70
29431;DHT22;16404;49.902;10.074;2022-11-20T15:56:19;7.40;69.50
29431;DHT22;16404;49.902;10.074;2022-11-20T15:59:04;7.30;69.60
29431;DHT22;16404;49.902;10.074;2022-11-20T16:01:49;7.30;69.80
29431;DHT22;16404;49.902;10.074;2022-11-20T16:04:33;7.30;70.00
29431;DHT22;16404;49.902;10.074;2022-11-20T16:07:18;7.30;70.10
29431;DHT22;16404;49.902;10.074;2022-11-20T16:10:03;7.30;70.20
29431;DHT22;16404;49.902;10.074;2022-11-20T16:12:48;7.40;70.10
29431;DHT22;16404;49.902;10.074;2022-11-20T16:16:01;7.30;70.00
29431;DHT22;16404;49.902;10.074;2022-11-20T16:18:46;7.30;70.00
29431;DHT22;16404;49.902;10.074;2022-11-20T16:21:31;7.30;70.10
29431;DHT22;16404;49.902;10.074;2022-11-20T16:24:15;7.30;70.20
29431;DHT22;16404;49.902;10.074;2022-11-20T16:27:00;7.30;70.20
29431;DHT22;16404;49.902;10.074;2022-11-20T16:29:44;7.40;70.10
29431;DHT22;16404;49.902;10.074;2022-11-20T16:32:29;7.40;69.80
29431;DHT22;16404;49.902;10.074;2022-11-20T16:35:14;7.20;69.90
29431;DHT22;16404;49.902;10.074;2022-11-20T16:37:58;7.20;70.10
29431;DHT22;16404;49.902;10.074;2022-11-20T16:40:43;7.30;70.20
29431;DHT22;16404;49.902;10.074;2022-11-20T16:43:27;7.30;70.20
29431;DHT22;16404;49.902;10.074;2022-11-20T16:46:14;7.30;70.10
29431;DHT22;16404;49.902;10.074;2022-11-20T16:51:44;7.30;70.20
29431;DHT22;16404;49.902;10.074;2022-11-20T16:54:29;7.30;70.40
29431;DHT22;16404;49.902;10.074;2022-11-20T16:57:13;7.30;70.40
29431;DHT22;16404;49.902;10.074;2022-11-20T16:59:59;7.30;70.40
29431;DHT22;16404;49.902;10.074;2022-11-20T17:02:43;7.30;70.40
29431;DHT22;16404;49.902;10.074;2022-11-20T17:05:32;7.30;70.70
29431;DHT22;16404;49.902;10.074;2022-11-20T17:08:16;7.30;70.70
29431;DHT22;16404;49.902;10.074;2022-11-20T17:11:06;7.30;70.70
29431;DHT22;16404;49.902;10.074;2022-11-20T17:13:51;7.30;70.70
29431;DHT22;16404;49.902;10.074;2022-11-20T17:16:36;7.30;70.70
29431;DHT22;16404;49.902;10.074;2022-11-20T17:19:21;7.30;70.80
29431;DHT22;16404;49.902;10.074;2022-11-20T17:22:07;7.30;70.90
29431;DHT22;16404;49.902;10.074;2022-11-20T17:24:51;7.20;71.00
29431;DHT22;16404;49.902;10.074;2022-11-20T17:27:36;7.30;71.20
29431;DHT22;16404;49.902;10.074;2022-11-20T17:30:20;7.30;71.20
29431;DHT22;16404;49.902;10.074;2022-11-20T17:33:05;7.30;71.20
29431;DHT22;16404;49.902;10.074;2022-11-20T17:35:49;7.30;71.40
29431;DHT22;16404;49.902;10.074;2022-11-20T17:38:35;7.30;71.30
29431;DHT22;16404;49.902;10.074;2022-11-20T17:41:21;7.30;71.30
29431;DHT22;16404;49.902;10.074;2022-11-20T17:44:09;7.30;71.40
29431;DHT22;16404;49.902;10.074;2022-11-20T17:46:53;7.30;71.50
29431;DHT22;16404;49.902;10.074;2022-11-20T17:49:38;7.30;71.50
29431;DHT22;16404;49.902;10.074;2022-11-20T17:52:22;7.30;71.70
29431;DHT22;16404;49.902;10.074;2022-11-20T17:55:07;7.40;71.90
29431;DHT22;16404;49.902;10.074;2022-11-20T17:57:53;7.40;71.80
29431;DHT22;16404;49.902;10.074;2022-11-20T18:00:40;7.40;71.80
29431;DHT22;16404;49.902;10.074;2022-11-20T18:03:25;7.40;71.90
29431;DHT22;16404;49.902;10.074;2022-11-20T18:06:11;7.40;71.90
29431;DHT22;16404;49.902;10.074;2022-11-20T18:08:59;7.40;72.00
29431;DHT22;16404;49.902;10.074;2022-11-20T18:11:44;7.40;72.10
29431;DHT22;16404;49.902;10.074;2022-11-20T18:14:28;7.40;72.10
29431;DHT22;16404;49.902;10.074;2022-11-20T18:17:15;7.50;72.10
29431;DHT22;16404;49.902;10.074;2022-11-20T18:20:00;7.50;72.20
29431;DHT22;16404;49.902;10.074;2022-11-20T18:22:44;7.50;72.10
29431;DHT22;16404;49.902;10.074;2022-11-20T18:25:29;7.50;72.10
29431;DHT22;16404;49.902;10.074;2022-11-20T18:28:13;7.50;72.20
29431;DHT22;16404;49.902;10.074;2022-11-20T18:30:58;7.50;72.00
29431;DHT22;16404;49.902;10.074;2022-11-20T18:33:47;7.50;72.00
29431;DHT22;16404;49.902;10.074;2022-11-20T18:36:32;7.50;72.00
29431;DHT22;16404;49.902;10.074;2022-11-20T18:39:16;7.50;72.20
29431;DHT22;16404;49.902;10.074;2022-11-20T18:42:01;7.50;72.10
29431;DHT22;16404;49.902;10.074;2022-11-20T18:45:04;7.50;72.10
29431;DHT22;16404;49.902;10.074;2022-11-20T18:47:49;7.50;72.20
29431;DHT22;16404;49.902;10.074;2022-11-20T18:50:34;7.50;72.40
29431;DHT22;16404;49.902;10.074;2022-11-20T18:53:18;7.50;72.50
29431;DHT22;16404;49.902;10.074;2022-11-20T18:56:04;7.50;72.60
29431;DHT22;16404;49.902;10.074;2022-11-20T18:58:50;7.50;72.60
29431;DHT22;16404;49.902;10.074;2022-11-20T19:01:35;7.50;72.80
29431;DHT22;16404;49.902;10.074;2022-11-20T19:04:19;7.50;72.90
29431;DHT22;16404;49.902;10.074;2022-11-20T19:07:04;7.60;72.80
29431;DHT22;16404;49.902;10.074;2022-11-20T19:09:49;7.60;72.70